Cross Plains, Indiana
Current Conditions -  °F | °C
As of 3:52 AM on Friday 28 Nov 2014 (Local Time) from KCVG Reporting Station
Light Snow Light Snow  
Wind Chill: 26°   Ceiling: 3800
Heat Index: 26°   Visibility: 9mi
Dew Point: 17°   Wind: 0mph
Humidity: 69%   Direction: NA
Pressure: 30.38"   Gusts: NA
Location:  38.94°N, 85.2°W
Report Text: KCVG 280852Z 00000KT 9SM -SN OVC038 M03/M08 A3038 RMK AO2 SNB40 SLP294 P0000 60000 T10331083 56002
Loading
Personal Weather Stations






























Interactive Weather Map New forecast layout! Learn more

10-Day Weather Forecast

Advertisements
Track Severe Weather on mobile